Nearby METAR (Airport) Reports

 

KPRN - Greenville, Alabama, USA
Distance from station: WNW 17mi, 28km
Updated: Wed, 17-Oct-2018 4:56am CDT
Mist, Overcast
Mist, Overcast
 Wind from N
Wind: N 8 mph , 13 km/h
Temperature: 70°F , 21°C
Dew Point: 66°F , 19°C
Humidity: 88%
Barometer: 30.14 inHg , 1020.7 hPa
Summary: Mist
Clouds: Overcast
Visibility: 1 1/2 miles , 2.4 km
Cloud details: Overcast 100 ft
2018/10/17 09:56 KPRN 170956Z AUTO 36007KT 1 1/2SM BR OVC001 21/19 A3014 RMK AO2 SLP201 T02110194
KTOI - Troy, Alabama, USA
Distance from station: ENE 21mi, 34km
Updated: Wed, 17-Oct-2018 4:53am CDT
Mist, Overcast
Mist, Overcast
 Wind from calm
Wind: Calm
Temperature: 70°F , 21°C
Dew Point: 70°F , 21°C
Humidity: 100%
Barometer: 30.14 inHg , 1020.7 hPa
Summary: Mist
Clouds: Overcast
Visibility: 3 miles , 5 km
Cloud details: Overcast 200 ft
2018/10/17 09:53 KTOI 170953Z AUTO 00000KT 3SM BR OVC002 21/21 A3014 RMK AO2 SLP200 T02110206
K79J - Andalusia/Opp Ar, Alabama, USA
Distance from station: S 29mi, 47km
Updated: Wed, 17-Oct-2018 4:26am CDT
Mist, Overcast
Mist, Overcast
 Wind from NNE
Wind: NNE 3 mph , 6 km/h
Temperature: 75°F , 24°C
Dew Point: 72°F , 22°C
Humidity: 89%
Barometer: 30.12 inHg , 1020 hPa
Summary: Mist
Clouds: Overcast
Visibility: 2 1/2 miles , 4 km
Cloud details: Overcast 300 ft
2018/10/17 09:26 K79J 170926Z AUTO 02003KT 2 1/2SM BR OVC003 24/22 A3012 RMK AO2 T02390217 $
 
KMGM - Montgomery, Alabama, USA
Distance from station: N 39mi, 63km
Updated: Wed, 17-Oct-2018 4:53am CDT
Overcast
Overcast
 Wind from NNW
Wind: NNW 8 mph , 13 km/h
Temperature: 70°F , 21°C
Dew Point: 68°F , 20°C
Humidity: 94%
Barometer: 30.16 inHg , 1021.3 hPa
Clouds: Overcast
Visibility: 8 miles , 13 km
Cloud details: Overcast 1000 ft
2018/10/17 09:53 KMGM 170953Z AUTO 33007KT 8SM OVC010 21/20 A3016 RMK AO2 SLP209 T02110200 TSNO
KMXF - Maxwell Afb/Mgm, Alabama, USA
Distance from station: N 44mi, 70km
Updated: Wed, 17-Oct-2018 4:56am CDT
Overcast
Overcast
 Wind from N
Wind: N 8 mph , 13 km/h
Temperature: 68°F , 20°C
Dew Point: 66°F , 19°C
Humidity: 94%
Clouds: Overcast
Visibility: 10 miles , 16 km
Cloud details: Overcast 1200 ft
2018/10/17 09:56 KMXF 170956Z AUTO 35007KT 10SM OVC012 20/19 M RMK AO2 SLPNO T02040194 $
KLOR - Lowe Ahp/Ft. Ruc, Alabama, USA
Distance from station: SE 44mi, 71km
Updated: Wed, 17-Oct-2018 4:58am CDT
Clear
Clear
 Wind from calm
Wind: Calm
Temperature: 68°F , 20°C
Dew Point: 68°F , 20°C
Humidity: 100%
Barometer: 30.11 inHg , 1019.6 hPa
Clouds: Clear
Visibility: 9 miles , 14 km
2018/10/17 09:58 KLOR 170958Z AUTO 00000KT 9SM CLR 20/20 A3011 RMK AO2 SLP177 T01980197
 
KGZH - Evergreen, Alabama, USA
Distance from station: WSW 46mi, 75km
Updated: Wed, 17-Oct-2018 4:53am CDT
Mist, Overcast
Mist, Overcast
 Wind from N
Wind: N 5 mph , 7 km/h
Temperature: 68°F , 20°C
Dew Point: 66°F , 19°C
Humidity: 94%
Barometer: 30.14 inHg , 1020.7 hPa
Summary: Mist
Clouds: Overcast
Visibility: 1 mile , 2 km
Cloud details: Overcast 200 ft
2018/10/17 09:53 KGZH 170953Z AUTO 36004KT 1SM BR VV002 20/19 A3014 RMK AO2 SLP205 T02000194
K0J4 - Florala Muni, Alabama, USA
Distance from station: S 47mi, 76km
Updated: Wed, 17-Oct-2018 2:58am CDT
NOT Current
Mist, Mostly cloudy
Mist, Mostly cloudy
 Wind from calm
Wind: Calm
Temperature: 70°F , 21°C
Dew Point: 66°F , 19°C
Humidity: 88%
Barometer: 30.13 inHg , 1020.3 hPa
Summary: Mist
Clouds: Mostly cloudy
Visibility: 6 miles , 10 km
Cloud details: Mostly cloudy 200 ft
Mostly cloudy 1400 ft
2018/10/17 07:58 K0J4 170758Z AUTO 00000KT 6SM BR BKN002 BKN014 21/19 A3013 RMK AO2 SLP198 T02110194
KOZR - Ozark/Cairns Aaf, Alabama, USA
Distance from station: SE 49mi, 78km
Updated: Wed, 17-Oct-2018 4:56am CDT
Mist, Clear
Mist, Clear
 Wind from calm
Wind: Calm
Temperature: 70°F , 21°C
Dew Point: 70°F , 21°C
Humidity: 100%
Barometer: 30.11 inHg , 1019.6 hPa
Summary: Mist
Clouds: Clear
Visibility: 2 3/4 miles , 4.4 km
2018/10/17 09:56 KOZR 170956Z AUTO 00000KT 2 3/4SM BR CLR 21/21 A3011 RMK AO2 VIS 1V2 3/4 SLP196 T02080206
 
KHEY - Ft Rucker/Hanche, Alabama, USA
Distance from station: ESE 49mi, 79km
Updated: Wed, 17-Oct-2018 4:58am CDT
Clear
Clear
 Wind from calm
Wind: Calm
Temperature: 70°F , 21°C
Dew Point: 70°F , 21°C
Humidity: 100%
Barometer: 30.10 inHg , 1019.3 hPa
Clouds: Clear
Visibility: 10 miles , 16 km
2018/10/17 09:58 KHEY 170958Z AUTO 00000KT 10SM CLR 21/21 A3010 RMK AO2 SLP192 T02080208
KDHN - Dothan, Alabama, USA
Distance from station: ESE 61mi, 97km
Updated: Wed, 17-Oct-2018 4:53am CDT
Mist, Clear
Mist, Clear
 Wind from NW
Wind: NW 3 mph , 6 km/h
Temperature: 72°F , 22°C
Dew Point: 70°F , 21°C
Humidity: 94%
Barometer: 30.15 inHg , 1021 hPa
Summary: Mist
Clouds: Clear
Visibility: 6 miles , 10 km
2018/10/17 09:53 KDHN 170953Z AUTO 31003KT 6SM BR CLR 22/21 A3015 RMK AO2 SLP204 T02220206
KCEW - Crestview, Florida, USA
Distance from station: S 66mi, 107km
Updated: Wed, 17-Oct-2018 3:53am CDT
Mist, Clear
Mist, Clear
 Wind from calm
Wind: Calm
Temperature: 73°F , 23°C
Dew Point: 72°F , 22°C
Humidity: 94%
Barometer: 30.11 inHg , 1019.6 hPa
Summary: Mist
Clouds: Clear
Visibility: 5 miles , 8 km
2018/10/17 08:53 KCEW 170853Z AUTO 00000KT 5SM BR CLR 23/22 A3011 RMK AO2 SLP193 T02280217 50000
 
KEUF - Eufaula, Alabama, USA
Distance from station: ENE 73mi, 118km
Updated: Tue, 16-Oct-2018 11:58pm CDT
NOT Current
Few Clouds
Few Clouds
 Wind from calm
Wind: Calm
Temperature: 72°F , 22°C
Dew Point: 72°F , 22°C
Humidity: 100%
Barometer: 30.10 inHg , 1019.3 hPa
Clouds: Few Clouds
Visibility: 8 miles , 13 km
Cloud details: Few Clouds 4100 ft
2018/10/17 04:58 KEUF 170458Z AUTO 00000KT 8SM FEW041 22/22 A3010 RMK AO2 SLP190 T02220217
KJKA - Gulf Shores, Alabama, USA
Distance from station: SSW 132mi, 212km
Updated: Wed, 17-Oct-2018 4:55am CDT
Mist, Overcast
Mist, Overcast
 Wind from NNE
Wind: NNE 7 mph , 11 km/h
Temperature: 73°F , 23°C
Dew Point: 73°F , 23°C
Humidity: 100%
Barometer: 30.10 inHg , 1019.3 hPa
Summary: Mist
Clouds: Overcast
Visibility: 1 1/2 miles , 2.4 km
Cloud details: Overcast 300 ft
2018/10/17 09:55 KJKA 170955Z AUTO 03006KT 1 1/2SM BR OVC003 23/23 A3010 RMK AO2 T02300230
KLSF - Ft Benning/Colum, Georgia, USA
Distance from station: SNE 89mi, 143km
Updated: Wed, 17-Oct-2018 4:56am CDT
Few Clouds
Few Clouds
 Wind from WNW
Wind: WNW 3 mph , 6 km/h
Temperature: 66°F , 19°C
Dew Point: 66°F , 19°C
Humidity: 100%
Barometer: 30.13 inHg , 1020.3 hPa
Clouds: Few Clouds
Visibility: 9 miles , 14 km
Cloud details: Few Clouds 3500 ft
2018/10/17 09:56 KLSF 170956Z AUTO 29003KT 9SM FEW035 19/19 A3013 RMK AO2 SLP206 T01940194 $
 
KMOB - Mobile/Bates, Alabama, USA
Distance from station: SW 125mi, 202km
Updated: Wed, 17-Oct-2018 4:56am CDT
Fog, Overcast
Fog, Overcast
 Wind from N
Wind: N 8 mph , 13 km/h
Temperature: 70°F , 21°C
Dew Point: 70°F , 21°C
Humidity: 100%
Barometer: 30.13 inHg , 1020.3 hPa
Summary: Fog
Clouds: Overcast
Visibility: 1/4 mile , 0.4 km
Cloud details: Overcast 200 ft
2018/10/17 09:56 KMOB 170956Z AUTO 36007KT 1/4SM FG VV002 21/21 A3013 RMK AO2 SLP200 T02060206
KNMM - Meridian Nas, Mississippi, USA
Distance from station: WNW 151mi, 243km
Updated: Wed, 17-Oct-2018 1:56am CDT
NOT Current
Mist, Overcast
Mist, Overcast
 Wind from N
Wind: N 9 mph , 15 km/h
Temperature: 57°F , 14°C
Dew Point: 57°F , 14°C
Humidity: 100%
Barometer: 30.19 inHg , 1022.4 hPa
Summary: Mist
Clouds: Overcast
Visibility: 5 miles , 8 km
Cloud details: Overcast 200 ft
2018/10/17 06:56 KNMM 170656Z AUTO 35008KT 5SM BR OVC002 14/14 A3019 RMK AO2 RAB03E36 SLP233 P0000 T01440139 $
KQHY - Hurlbert (Ft Walton Bch), Florida, USA
Distance from station: S 94mi, 151km
Updated: Wed, 17-Oct-2018 4:56am CDT
Mostly cloudy
Mostly cloudy
 Wind from NNE
Wind: NNE 3 mph , 6 km/h
Temperature: 75°F , 24°C
Dew Point: 75°F , 24°C
Humidity: 100%
Barometer: 30.11 inHg , 1019.6 hPa
Clouds: Mostly cloudy
Visibility: 10 miles , 16 km
Cloud details: Mostly cloudy 1400 ft
2018/10/17 09:56 KQHY 170956Z AUTO 02003KT 10SM BKN014 24/24 A3011 RMK AO2 SLP199 T02420235 $
 
KTCL - Tuscaloosa, Alabama, USA
Distance from station: NNW 129mi, 207km
Updated: Wed, 17-Oct-2018 4:53am CDT
Overcast
Overcast
 Wind from N
Wind: N 6 mph , 9 km/h
Temperature: 61°F , 16°C
Dew Point: 59°F , 15°C
Humidity: 94%
Barometer: 30.22 inHg , 1023.4 hPa
Clouds: Overcast
Visibility: 10 miles , 16 km
Cloud details: Overcast 700 ft
2018/10/17 09:53 KTCL 170953Z AUTO 36005KT 10SM OVC007 16/15 A3022 RMK AO2 RAE50 SLP230 P0000 T01610150
KECP - Panama City, Florida, USA
Distance from station: SSE 122mi, 196km
Updated: Tue, 16-Oct-2018 9:53pm CDT
NOT Current
Mist, Few clouds
Mist, Few clouds
 Wind from calm
Wind: Calm
Temperature: 75°F , 24°C
Dew Point: 73°F , 23°C
Humidity: 94%
Barometer: 30.11 inHg , 1019.6 hPa
Summary: Mist
Clouds: Few Clouds
Visibility: 5 miles , 8 km
Cloud details: Few Clouds 1500 ft
2018/10/17 02:53 KECP 170253Z 00000KT 5SM BR FEW015 24/23 A3011
KCBM - Columbus Afb, Mississippi, USA
Distance from station: NW 175mi, 282km
Updated: Wed, 17-Oct-2018 4:56am CDT
Light rain, Overcast
Light rain, Overcast
 Wind from N
Wind: N 7 mph , 11 km/h
Temperature: 55°F , 13°C
Dew Point: 54°F , 12°C
Humidity: 94%
Barometer: 30.23 inHg , 1023.7 hPa
Summary: Light rain
Clouds: Overcast
Visibility: 10 miles , 16 km
Cloud details: Overcast 600 ft
2018/10/17 09:56 KCBM 170956Z AUTO 36006KT 10SM -RA OVC006 13/12 A3023 RMK AO2 SLP240 P0006 T01290118 $
 
KBHM - Birmingham, Alabama, USA
Distance from station: N 132mi, 212km
Updated: Wed, 17-Oct-2018 4:53am CDT
Light rain, Overcast
Light rain, Overcast
 Wind from NNW
Wind: NNW 8 mph , 13 km/h
Temperature: 61°F , 16°C
Dew Point: 57°F , 14°C
Humidity: 88%
Barometer: 30.23 inHg , 1023.7 hPa
Summary: Light rain
Clouds: Overcast
Visibility: 9 miles , 14 km
Cloud details: Overcast 500 ft
2018/10/17 09:53 KBHM 170953Z 34007KT 9SM -RA OVC005 16/14 A3023 RMK AO2 SLP234 P0000 T01560144
KAAF - Apalachicola, Florida, USA
Distance from station: SSE 156mi, 250km
Updated: Wed, 10-Oct-2018 11:53am CDT
NOT Current
Heavy rain, Overcast
Heavy rain, Overcast
 Wind from S
Wind: S 58 mph , 93 km/h, Gust: 84 mph , 135 km/h
Temperature: 81°F , 27°C
Barometer: 29.12 inHg , 986.1 hPa
Summary: Heavy rain
Clouds: Overcast
Visibility: 1/4 mile , 0.4 km
Cloud details: Mostly cloudy 900 ft
Overcast 1500 ft
2018/10/10 16:53 KAAF 101653Z AUTO 17050G73KT 1/4SM +RA BKN009 OVC015 27/ A2912 RMK AO2 PK WND 15077/1631 LTG DSNT W AND NW PRESFR SLP859 P0048 T0267
KATL - Atlanta, Georgia, USA
Distance from station: NE 177mi, 287km
Updated: Wed, 17-Oct-2018 4:52am CDT
Overcast
Overcast
 Wind from NW
Wind: NW 7 mph , 11 km/h
Temperature: 64°F , 18°C
Dew Point: 61°F , 16°C
Humidity: 88%
Barometer: 30.17 inHg , 1021.7 hPa
Clouds: Overcast
Visibility: 10 miles , 16 km
Cloud details: Few Clouds 2800 ft
Mostly cloudy 7000 ft
Overcast 12000 ft
2018/10/17 09:52 KATL 170952Z 32006KT 10SM FEW028 BKN070 OVC120 18/16 A3017 RMK AO2 SLP209 ACC NE-OHD-W T01780156
 
KGPT - Gulfport, Mississippi, USA
Distance from station: SW 192mi, 309km
Updated: Wed, 17-Oct-2018 4:53am CDT
Mist, Overcast
Mist, Overcast
 Wind from NNE
Wind: NNE 7 mph , 11 km/h
Temperature: 72°F , 22°C
Dew Point: 72°F , 22°C
Humidity: 100%
Barometer: 30.10 inHg , 1019.3 hPa
Summary: Mist
Clouds: Overcast
Visibility: 3 miles , 5 km
Cloud details: Overcast 300 ft
2018/10/17 09:53 KGPT 170953Z AUTO 02006KT 3SM BR OVC003 22/22 A3010 RMK AO2 SLP191 T02220217
KNEW - New Orleans/Lake, Louisiana, USA
Distance from station: SW 255mi, 410km
Updated: Wed, 17-Oct-2018 4:53am CDT
Overcast
Overcast
 Wind from NE
Wind: NE 13 mph , 20 km/h
Temperature: 75°F , 24°C
Dew Point: 72°F , 22°C
Humidity: 89%
Barometer: 30.09 inHg , 1019 hPa
Clouds: Overcast
Visibility: 10 miles , 16 km
Cloud details: Overcast 400 ft
2018/10/17 09:53 KNEW 170953Z AUTO 04011KT 10SM OVC004 24/22 A3009 RMK AO2 SLP181 T02390222
KP92 - Salt Point, Louisiana, USA
Distance from station: SW 347mi, 559km
Updated: Wed, 17-Oct-2018 4:53am CDT

 Wind from varies
Wind: varies 3 mph , 6 km/h
Barometer: 30.06 inHg , 1017.9 hPa
2018/10/17 09:53 KP92 170953Z AUTO VRB03KT A3006 RMK AO1 SLP180 $